sensor_id;sensor_type;location;lat;lon;timestamp;pressure;altitude;pressure_sealevel;temperature;humidity
51452;BME280;37521;52.020;-1.740;2023-04-04T00:00:42;101243.53;;;-0.84;100.00
51452;BME280;37521;52.020;-1.740;2023-04-04T00:03:11;101240.00;;;-0.88;100.00
51452;BME280;37521;52.020;-1.740;2023-04-04T00:05:39;101243.41;;;-0.90;100.00
51452;BME280;37521;52.020;-1.740;2023-04-04T00:08:07;101239.94;;;-0.92;100.00
51452;BME280;37521;52.020;-1.740;2023-04-04T00:10:36;101235.59;;;-0.93;100.00
51452;BME280;37521;52.020;-1.740;2023-04-04T00:13:04;101241.47;;;-1.00;100.00
51452;BME280;37521;52.020;-1.740;2023-04-04T00:15:33;101239.59;;;-1.07;100.00
51452;BME280;37521;52.020;-1.740;2023-04-04T00:18:02;101235.19;;;-1.13;100.00
51452;BME280;37521;52.020;-1.740;2023-04-04T00:20:32;101233.19;;;-1.26;100.00
51452;BME280;37521;52.020;-1.740;2023-04-04T00:23:00;101224.97;;;-1.46;100.00
51452;BME280;37521;52.020;-1.740;2023-04-04T00:25:28;101221.81;;;-1.71;100.00
51452;BME280;37521;52.020;-1.740;2023-04-04T00:27:56;101222.34;;;-1.85;100.00
51452;BME280;37521;52.020;-1.740;2023-04-04T00:30:27;101220.34;;;-1.97;100.00
51452;BME280;37521;52.020;-1.740;2023-04-04T00:32:55;101220.91;;;-2.09;100.00
51452;BME280;37521;52.020;-1.740;2023-04-04T00:35:24;101225.22;;;-2.09;100.00
51452;BME280;37521;52.020;-1.740;2023-04-04T00:37:53;101231.91;;;-2.17;100.00
51452;BME280;37521;52.020;-1.740;2023-04-04T00:40:22;101225.50;;;-2.33;100.00
51452;BME280;37521;52.020;-1.740;2023-04-04T00:42:50;101224.38;;;-2.43;100.00
51452;BME280;37521;52.020;-1.740;2023-04-04T00:45:18;101223.38;;;-2.48;100.00
51452;BME280;37521;52.020;-1.740;2023-04-04T00:47:48;101230.25;;;-2.49;100.00
51452;BME280;37521;52.020;-1.740;2023-04-04T00:50:17;101229.63;;;-2.40;100.00
51452;BME280;37521;52.020;-1.740;2023-04-04T00:52:45;101222.69;;;-2.41;100.00
51452;BME280;37521;52.020;-1.740;2023-04-04T00:55:15;101225.88;;;-2.51;100.00
51452;BME280;37521;52.020;-1.740;2023-04-04T00:57:44;101221.25;;;-2.63;100.00
51452;BME280;37521;52.020;-1.740;2023-04-04T01:00:13;101219.38;;;-2.68;100.00
51452;BME280;37521;52.020;-1.740;2023-04-04T01:02:42;101221.97;;;-2.68;100.00
51452;BME280;37521;52.020;-1.740;2023-04-04T01:05:10;101223.63;;;-2.72;100.00
51452;BME280;37521;52.020;-1.740;2023-04-04T01:07:40;101213.97;;;-2.78;100.00
51452;BME280;37521;52.020;-1.740;2023-04-04T01:10:10;101225.16;;;-2.79;100.00
51452;BME280;37521;52.020;-1.740;2023-04-04T01:12:40;101214.81;;;-2.79;100.00
51452;BME280;37521;52.020;-1.740;2023-04-04T01:15:09;101216.63;;;-2.75;100.00
51452;BME280;37521;52.020;-1.740;2023-04-04T01:17:38;101221.59;;;-2.82;100.00
51452;BME280;37521;52.020;-1.740;2023-04-04T01:20:10;101222.25;;;-2.89;100.00
51452;BME280;37521;52.020;-1.740;2023-04-04T01:22:46;101216.81;;;-3.00;100.00
51452;BME280;37521;52.020;-1.740;2023-04-04T01:25:18;101216.66;;;-3.06;100.00
51452;BME280;37521;52.020;-1.740;2023-04-04T01:27:55;101208.91;;;-3.06;100.00
51452;BME280;37521;52.020;-1.740;2023-04-04T01:30:27;101208.25;;;-2.97;100.00
51452;BME280;37521;52.020;-1.740;2023-04-04T01:33:02;101216.31;;;-2.87;100.00
51452;BME280;37521;52.020;-1.740;2023-04-04T01:35:36;101221.66;;;-2.81;100.00
51452;BME280;37521;52.020;-1.740;2023-04-04T01:38:13;101220.91;;;-2.77;100.00
51452;BME280;37521;52.020;-1.740;2023-04-04T01:40:48;101223.47;;;-2.77;100.00
51452;BME280;37521;52.020;-1.740;2023-04-04T01:43:19;101215.50;;;-2.86;100.00
51452;BME280;37521;52.020;-1.740;2023-04-04T01:45:47;101216.16;;;-2.93;100.00
51452;BME280;37521;52.020;-1.740;2023-04-04T01:48:18;101210.78;;;-3.00;100.00
51452;BME280;37521;52.020;-1.740;2023-04-04T01:50:50;101213.09;;;-3.10;100.00
51452;BME280;37521;52.020;-1.740;2023-04-04T01:53:19;101212.13;;;-3.13;100.00
51452;BME280;37521;52.020;-1.740;2023-04-04T01:55:48;101207.03;;;-3.10;100.00
51452;BME280;37521;52.020;-1.740;2023-04-04T01:58:16;101196.84;;;-3.06;100.00
51452;BME280;37521;52.020;-1.740;2023-04-04T02:00:45;101183.09;;;-3.05;100.00
51452;BME280;37521;52.020;-1.740;2023-04-04T02:03:14;101187.19;;;-3.13;100.00
51452;BME280;37521;52.020;-1.740;2023-04-04T02:05:42;101201.03;;;-3.09;100.00
51452;BME280;37521;52.020;-1.740;2023-04-04T02:08:10;101200.19;;;-3.08;100.00
51452;BME280;37521;52.020;-1.740;2023-04-04T02:10:46;101205.38;;;-3.08;100.00
51452;BME280;37521;52.020;-1.740;2023-04-04T02:13:15;101212.22;;;-3.10;100.00
51452;BME280;37521;52.020;-1.740;2023-04-04T02:15:46;101207.16;;;-3.07;100.00
51452;BME280;37521;52.020;-1.740;2023-04-04T02:18:15;101196.72;;;-3.10;100.00
51452;BME280;37521;52.020;-1.740;2023-04-04T02:20:44;101192.34;;;-3.13;100.00
51452;BME280;37521;52.020;-1.740;2023-04-04T02:23:12;101194.06;;;-3.13;100.00
51452;BME280;37521;52.020;-1.740;2023-04-04T02:25:40;101188.94;;;-3.12;100.00
51452;BME280;37521;52.020;-1.740;2023-04-04T02:28:08;101177.78;;;-3.09;100.00
51452;BME280;37521;52.020;-1.740;2023-04-04T02:30:37;101168.34;;;-3.09;100.00
51452;BME280;37521;52.020;-1.740;2023-04-04T02:33:07;101171.84;;;-3.07;100.00
51452;BME280;37521;52.020;-1.740;2023-04-04T02:35:35;101176.22;;;-3.04;100.00
51452;BME280;37521;52.020;-1.740;2023-04-04T02:38:05;101174.47;;;-3.05;100.00
51452;BME280;37521;52.020;-1.740;2023-04-04T02:40:39;101179.47;;;-3.11;100.00
51452;BME280;37521;52.020;-1.740;2023-04-04T02:43:08;101169.78;;;-3.18;100.00
51452;BME280;37521;52.020;-1.740;2023-04-04T02:45:37;101165.00;;;-3.35;100.00
51452;BME280;37521;52.020;-1.740;2023-04-04T02:48:18;101163.38;;;-3.33;100.00
51452;BME280;37521;52.020;-1.740;2023-04-04T02:50:49;101159.97;;;-3.32;100.00
51452;BME280;37521;52.020;-1.740;2023-04-04T02:53:17;101163.09;;;-3.42;100.00
51452;BME280;37521;52.020;-1.740;2023-04-04T02:55:48;101164.44;;;-3.54;100.00
51452;BME280;37521;52.020;-1.740;2023-04-04T02:58:16;101160.00;;;-3.60;100.00
51452;BME280;37521;52.020;-1.740;2023-04-04T03:00:44;101159.91;;;-3.63;100.00
51452;BME280;37521;52.020;-1.740;2023-04-04T03:03:14;101161.41;;;-3.70;100.00
51452;BME280;37521;52.020;-1.740;2023-04-04T03:05:46;101153.72;;;-3.68;100.00
51452;BME280;37521;52.020;-1.740;2023-04-04T03:08:15;101158.28;;;-3.60;100.00
51452;BME280;37521;52.020;-1.740;2023-04-04T03:10:44;101155.94;;;-3.52;100.00
51452;BME280;37521;52.020;-1.740;2023-04-04T03:13:12;101155.09;;;-3.51;100.00
51452;BME280;37521;52.020;-1.740;2023-04-04T03:15:41;101153.78;;;-3.67;100.00
51452;BME280;37521;52.020;-1.740;2023-04-04T03:18:14;101150.03;;;-3.76;100.00
51452;BME280;37521;52.020;-1.740;2023-04-04T03:20:44;101143.97;;;-3.78;100.00
51452;BME280;37521;52.020;-1.740;2023-04-04T03:23:13;101146.72;;;-3.72;100.00
51452;BME280;37521;52.020;-1.740;2023-04-04T03:25:41;101136.44;;;-3.71;100.00
51452;BME280;37521;52.020;-1.740;2023-04-04T03:28:10;101145.16;;;-3.67;100.00
51452;BME280;37521;52.020;-1.740;2023-04-04T03:30:39;101137.53;;;-3.63;100.00
51452;BME280;37521;52.020;-1.740;2023-04-04T03:33:08;101141.13;;;-3.58;100.00
51452;BME280;37521;52.020;-1.740;2023-04-04T03:35:37;101143.03;;;-3.52;100.00
51452;BME280;37521;52.020;-1.740;2023-04-04T03:38:06;101133.53;;;-3.53;100.00
51452;BME280;37521;52.020;-1.740;2023-04-04T03:40:35;101135.00;;;-3.61;100.00
51452;BME280;37521;52.020;-1.740;2023-04-04T03:43:09;101131.44;;;-3.66;100.00
51452;BME280;37521;52.020;-1.740;2023-04-04T03:45:39;101129.69;;;-3.67;100.00
51452;BME280;37521;52.020;-1.740;2023-04-04T03:48:08;101122.41;;;-3.80;100.00
51452;BME280;37521;52.020;-1.740;2023-04-04T03:50:38;101122.09;;;-3.91;100.00
51452;BME280;37521;52.020;-1.740;2023-04-04T03:53:07;101127.38;;;-3.87;100.00
51452;BME280;37521;52.020;-1.740;2023-04-04T03:55:39;101126.50;;;-3.87;100.00
51452;BME280;37521;52.020;-1.740;2023-04-04T03:58:08;101120.63;;;-3.81;100.00
51452;BME280;37521;52.020;-1.740;2023-04-04T04:00:36;101127.75;;;-3.74;100.00
51452;BME280;37521;52.020;-1.740;2023-04-04T04:03:04;101115.47;;;-3.81;100.00
51452;BME280;37521;52.020;-1.740;2023-04-04T04:05:33;101117.13;;;-3.84;100.00
51452;BME280;37521;52.020;-1.740;2023-04-04T04:08:01;101116.41;;;-3.79;100.00
51452;BME280;37521;52.020;-1.740;2023-04-04T04:10:29;101112.28;;;-3.74;100.00
51452;BME280;37521;52.020;-1.740;2023-04-04T04:12:59;101110.41;;;-3.78;100.00
51452;BME280;37521;52.020;-1.740;2023-04-04T04:15:27;101105.63;;;-3.95;100.00
51452;BME280;37521;52.020;-1.740;2023-04-04T04:17:58;101101.28;;;-3.96;100.00
51452;BME280;37521;52.020;-1.740;2023-04-04T04:20:28;101105.00;;;-3.88;100.00
51452;BME280;37521;52.020;-1.740;2023-04-04T04:22:56;101104.34;;;-3.80;100.00
51452;BME280;37521;52.020;-1.740;2023-04-04T04:25:24;101101.69;;;-3.82;100.00
51452;BME280;37521;52.020;-1.740;2023-04-04T04:28:14;101098.69;;;-3.97;100.00
51452;BME280;37521;52.020;-1.740;2023-04-04T04:30:43;101087.09;;;-4.10;100.00
51452;BME280;37521;52.020;-1.740;2023-04-04T04:33:13;101092.09;;;-4.16;100.00
51452;BME280;37521;52.020;-1.740;2023-04-04T04:35:52;101091.97;;;-4.21;100.00
51452;BME280;37521;52.020;-1.740;2023-04-04T04:38:22;101091.81;;;-4.25;100.00
51452;BME280;37521;52.020;-1.740;2023-04-04T04:40:51;101088.06;;;-4.35;100.00
51452;BME280;37521;52.020;-1.740;2023-04-04T04:43:26;101092.16;;;-4.42;100.00
51452;BME280;37521;52.020;-1.740;2023-04-04T04:45:54;101092.97;;;-4.43;100.00
51452;BME280;37521;52.020;-1.740;2023-04-04T04:48:23;101094.19;;;-4.31;100.00
51452;BME280;37521;52.020;-1.740;2023-04-04T04:50:55;101089.50;;;-4.16;100.00
51452;BME280;37521;52.020;-1.740;2023-04-04T04:53:34;101090.34;;;-4.17;100.00
51452;BME280;37521;52.020;-1.740;2023-04-04T04:56:03;101098.44;;;-4.33;100.00
51452;BME280;37521;52.020;-1.740;2023-04-04T04:58:35;101097.22;;;-4.45;100.00
51452;BME280;37521;52.020;-1.740;2023-04-04T05:01:07;101100.44;;;-4.52;100.00
51452;BME280;37521;52.020;-1.740;2023-04-04T05:03:38;101093.66;;;-4.48;100.00
51452;BME280;37521;52.020;-1.740;2023-04-04T05:06:11;101100.22;;;-4.58;100.00
51452;BME280;37521;52.020;-1.740;2023-04-04T05:08:39;101095.59;;;-4.68;100.00
51452;BME280;37521;52.020;-1.740;2023-04-04T05:11:19;101092.97;;;-4.70;100.00
51452;BME280;37521;52.020;-1.740;2023-04-04T05:13:50;101100.31;;;-4.55;100.00
51452;BME280;37521;52.020;-1.740;2023-04-04T05:16:19;101099.78;;;-4.45;100.00
51452;BME280;37521;52.020;-1.740;2023-04-04T05:18:49;101099.34;;;-4.31;100.00
51452;BME280;37521;52.020;-1.740;2023-04-04T05:21:17;101100.47;;;-4.23;100.00
51452;BME280;37521;52.020;-1.740;2023-04-04T05:23:48;101102.22;;;-4.22;100.00
51452;BME280;37521;52.020;-1.740;2023-04-04T05:26:20;101082.78;;;-4.40;100.00
51452;BME280;37521;52.020;-1.740;2023-04-04T05:28:52;101093.75;;;-4.72;100.00
51452;BME280;37521;52.020;-1.740;2023-04-04T05:31:23;101091.66;;;-4.84;100.00
51452;BME280;37521;52.020;-1.740;2023-04-04T05:33:52;101087.47;;;-4.80;100.00
51452;BME280;37521;52.020;-1.740;2023-04-04T05:36:28;101098.03;;;-4.73;100.00
51452;BME280;37521;52.020;-1.740;2023-04-04T05:39:02;101097.44;;;-4.64;100.00
51452;BME280;37521;52.020;-1.740;2023-04-04T05:41:34;101099.72;;;-4.48;100.00
51452;BME280;37521;52.020;-1.740;2023-04-04T05:44:12;101110.47;;;-4.34;100.00
51452;BME280;37521;52.020;-1.740;2023-04-04T05:46:41;101108.75;;;-4.33;100.00
51452;BME280;37521;52.020;-1.740;2023-04-04T05:49:09;101108.00;;;-4.29;100.00
51452;BME280;37521;52.020;-1.740;2023-04-04T05:51:42;101120.81;;;-4.32;100.00
51452;BME280;37521;52.020;-1.740;2023-04-04T05:54:13;101121.13;;;-4.49;100.00
51452;BME280;37521;52.020;-1.740;2023-04-04T05:56:42;101121.69;;;-4.59;100.00
51452;BME280;37521;52.020;-1.740;2023-04-04T05:59:23;101114.78;;;-4.60;100.00
51452;BME280;37521;52.020;-1.740;2023-04-04T06:01:57;101107.28;;;-4.52;100.00
51452;BME280;37521;52.020;-1.740;2023-04-04T06:04:25;101114.53;;;-4.41;100.00
51452;BME280;37521;52.020;-1.740;2023-04-04T06:06:56;101114.09;;;-4.27;100.00
51452;BME280;37521;52.020;-1.740;2023-04-04T06:09:24;101106.78;;;-4.14;100.00
51452;BME280;37521;52.020;-1.740;2023-04-04T06:11:53;101102.41;;;-4.16;100.00
51452;BME280;37521;52.020;-1.740;2023-04-04T06:14:23;101115.47;;;-4.10;100.00
51452;BME280;37521;52.020;-1.740;2023-04-04T06:16:52;101107.94;;;-4.04;100.00
51452;BME280;37521;52.020;-1.740;2023-04-04T06:19:20;101116.09;;;-3.90;100.00
51452;BME280;37521;52.020;-1.740;2023-04-04T06:21:49;101110.41;;;-3.78;100.00
51452;BME280;37521;52.020;-1.740;2023-04-04T06:24:17;101103.69;;;-3.73;100.00
51452;BME280;37521;52.020;-1.740;2023-04-04T06:26:45;101108.63;;;-3.51;100.00
51452;BME280;37521;52.020;-1.740;2023-04-04T06:29:19;101114.03;;;-3.42;100.00
51452;BME280;37521;52.020;-1.740;2023-04-04T06:31:49;101116.53;;;-3.45;100.00
51452;BME280;37521;52.020;-1.740;2023-04-04T06:34:22;101117.66;;;-3.35;100.00
51452;BME280;37521;52.020;-1.740;2023-04-04T06:36:53;101121.44;;;-3.24;100.00
51452;BME280;37521;52.020;-1.740;2023-04-04T06:39:25;101128.63;;;-3.12;100.00
51452;BME280;37521;52.020;-1.740;2023-04-04T06:41:57;101132.16;;;-3.09;100.00
51452;BME280;37521;52.020;-1.740;2023-04-04T06:44:28;101131.38;;;-3.06;100.00
51452;BME280;37521;52.020;-1.740;2023-04-04T06:46:57;101138.47;;;-2.99;100.00
51452;BME280;37521;52.020;-1.740;2023-04-04T06:49:25;101128.28;;;-2.93;100.00
51452;BME280;37521;52.020;-1.740;2023-04-04T06:51:54;101130.19;;;-2.86;100.00
51452;BME280;37521;52.020;-1.740;2023-04-04T06:54:23;101135.34;;;-2.87;100.00
51452;BME280;37521;52.020;-1.740;2023-04-04T06:56:51;101128.69;;;-2.78;100.00
51452;BME280;37521;52.020;-1.740;2023-04-04T06:59:20;101124.38;;;-2.77;100.00
51452;BME280;37521;52.020;-1.740;2023-04-04T07:01:48;101124.41;;;-2.76;100.00
51452;BME280;37521;52.020;-1.740;2023-04-04T07:04:18;101131.47;;;-2.70;100.00
51452;BME280;37521;52.020;-1.740;2023-04-04T07:06:47;101133.34;;;-2.63;100.00
51452;BME280;37521;52.020;-1.740;2023-04-04T07:09:15;101134.47;;;-2.53;100.00
51452;BME280;37521;52.020;-1.740;2023-04-04T07:11:54;101127.06;;;-2.39;100.00
51452;BME280;37521;52.020;-1.740;2023-04-04T07:14:23;101124.78;;;-2.27;100.00
51452;BME280;37521;52.020;-1.740;2023-04-04T07:16:52;101131.91;;;-2.15;100.00
51452;BME280;37521;52.020;-1.740;2023-04-04T07:19:22;101121.94;;;-2.00;100.00
51452;BME280;37521;52.020;-1.740;2023-04-04T07:21:54;101123.13;;;-1.84;100.00
51452;BME280;37521;52.020;-1.740;2023-04-04T07:24:23;101123.38;;;-1.74;100.00
51452;BME280;37521;52.020;-1.740;2023-04-04T07:26:51;101113.66;;;-1.42;100.00
51452;BME280;37521;52.020;-1.740;2023-04-04T07:29:19;101113.75;;;-0.93;100.00
51452;BME280;37521;52.020;-1.740;2023-04-04T07:31:48;101109.03;;;-0.66;100.00
51452;BME280;37521;52.020;-1.740;2023-04-04T07:34:16;101102.47;;;-0.45;100.00
51452;BME280;37521;52.020;-1.740;2023-04-04T07:36:47;101098.28;;;-0.34;100.00
51452;BME280;37521;52.020;-1.740;2023-04-04T07:39:15;101099.97;;;-0.39;100.00
51452;BME280;37521;52.020;-1.740;2023-04-04T07:41:43;101093.84;;;-0.41;100.00
51452;BME280;37521;52.020;-1.740;2023-04-04T07:44:11;101102.50;;;-0.42;100.00
51452;BME280;37521;52.020;-1.740;2023-04-04T07:46:39;101106.81;;;-0.43;100.00
51452;BME280;37521;52.020;-1.740;2023-04-04T07:49:08;101104.19;;;-0.44;100.00
51452;BME280;37521;52.020;-1.740;2023-04-04T07:51:36;101088.91;;;-0.26;100.00
51452;BME280;37521;52.020;-1.740;2023-04-04T07:54:07;101092.91;;;0.13;100.00
51452;BME280;37521;52.020;-1.740;2023-04-04T07:56:35;101091.41;;;0.29;100.00
51452;BME280;37521;52.020;-1.740;2023-04-04T07:59:03;101092.28;;;0.32;100.00
51452;BME280;37521;52.020;-1.740;2023-04-04T08:01:31;101087.97;;;0.31;100.00
51452;BME280;37521;52.020;-1.740;2023-04-04T08:03:59;101089.84;;;0.41;100.00
51452;BME280;37521;52.020;-1.740;2023-04-04T08:06:28;101085.09;;;0.81;100.00
51452;BME280;37521;52.020;-1.740;2023-04-04T08:08:56;101093.97;;;1.01;100.00
51452;BME280;37521;52.020;-1.740;2023-04-04T08:11:26;101099.09;;;0.94;100.00
51452;BME280;37521;52.020;-1.740;2023-04-04T08:13:54;101102.50;;;0.91;100.00
51452;BME280;37521;52.020;-1.740;2023-04-04T08:16:22;101106.03;;;0.96;100.00
51452;BME280;37521;52.020;-1.740;2023-04-04T08:18:51;101102.66;;;1.06;100.00
51452;BME280;37521;52.020;-1.740;2023-04-04T08:21:20;101102.03;;;1.29;100.00
51452;BME280;37521;52.020;-1.740;2023-04-04T08:23:48;101098.75;;;1.51;100.00
51452;BME280;37521;52.020;-1.740;2023-04-04T08:26:16;101097.13;;;1.67;100.00
51452;BME280;37521;52.020;-1.740;2023-04-04T08:28:46;101094.63;;;1.81;100.00
51452;BME280;37521;52.020;-1.740;2023-04-04T08:31:14;101092.09;;;1.91;100.00
51452;BME280;37521;52.020;-1.740;2023-04-04T08:33:42;101103.44;;;2.04;100.00
51452;BME280;37521;52.020;-1.740;2023-04-04T08:36:13;101103.53;;;2.16;100.00
51452;BME280;37521;52.020;-1.740;2023-04-04T08:38:42;101101.81;;;2.22;100.00
51452;BME280;37521;52.020;-1.740;2023-04-04T08:41:10;101098.38;;;2.30;100.00
51452;BME280;37521;52.020;-1.740;2023-04-04T08:43:40;101097.53;;;2.37;100.00
51452;BME280;37521;52.020;-1.740;2023-04-04T08:46:14;101094.09;;;2.44;100.00
51452;BME280;37521;52.020;-1.740;2023-04-04T08:48:43;101102.81;;;2.48;100.00
51452;BME280;37521;52.020;-1.740;2023-04-04T08:51:13;101094.19;;;2.63;100.00
51452;BME280;37521;52.020;-1.740;2023-04-04T08:53:42;101102.03;;;2.80;100.00
51452;BME280;37521;52.020;-1.740;2023-04-04T08:56:11;101101.25;;;3.04;100.00
51452;BME280;37521;52.020;-1.740;2023-04-04T08:58:39;101096.03;;;3.17;100.00
51452;BME280;37521;52.020;-1.740;2023-04-04T09:01:07;101081.25;;;3.19;100.00
51452;BME280;37521;52.020;-1.740;2023-04-04T09:03:37;101084.75;;;3.43;100.00
51452;BME280;37521;52.020;-1.740;2023-04-04T09:06:06;101085.59;;;3.66;100.00
51452;BME280;37521;52.020;-1.740;2023-04-04T09:08:35;101089.94;;;3.73;100.00
51452;BME280;37521;52.020;-1.740;2023-04-04T09:11:04;101095.16;;;3.81;100.00
51452;BME280;37521;52.020;-1.740;2023-04-04T09:13:33;101098.63;;;3.88;100.00
51452;BME280;37521;52.020;-1.740;2023-04-04T09:16:04;101101.22;;;4.06;100.00
51452;BME280;37521;52.020;-1.740;2023-04-04T09:18:33;101102.06;;;4.17;100.00
51452;BME280;37521;52.020;-1.740;2023-04-04T09:21:09;101093.34;;;4.24;100.00
51452;BME280;37521;52.020;-1.740;2023-04-04T09:23:38;101103.72;;;4.41;100.00
51452;BME280;37521;52.020;-1.740;2023-04-04T09:26:06;101101.00;;;4.70;100.00
51452;BME280;37521;52.020;-1.740;2023-04-04T09:28:34;101102.66;;;4.89;100.00
51452;BME280;37521;52.020;-1.740;2023-04-04T09:31:06;101098.97;;;5.19;100.00
51452;BME280;37521;52.020;-1.740;2023-04-04T09:33:37;101099.69;;;5.38;100.00
51452;BME280;37521;52.020;-1.740;2023-04-04T09:36:06;101096.16;;;5.45;100.00
51452;BME280;37521;52.020;-1.740;2023-04-04T09:38:39;101101.31;;;5.55;100.00
51452;BME280;37521;52.020;-1.740;2023-04-04T09:41:09;101090.81;;;5.58;100.00
51452;BME280;37521;52.020;-1.740;2023-04-04T09:43:38;101097.78;;;5.59;100.00
51452;BME280;37521;52.020;-1.740;2023-04-04T09:46:06;101091.41;;;5.90;100.00
51452;BME280;37521;52.020;-1.740;2023-04-04T09:48:35;101084.81;;;6.34;100.00
51452;BME280;37521;52.020;-1.740;2023-04-04T09:51:05;101073.09;;;6.64;100.00
51452;BME280;37521;52.020;-1.740;2023-04-04T09:53:34;101077.31;;;6.76;100.00
51452;BME280;37521;52.020;-1.740;2023-04-04T09:56:05;101074.50;;;6.90;100.00
51452;BME280;37521;52.020;-1.740;2023-04-04T09:58:33;101078.00;;;6.90;100.00
51452;BME280;37521;52.020;-1.740;2023-04-04T10:01:03;101077.94;;;6.93;100.00
51452;BME280;37521;52.020;-1.740;2023-04-04T10:03:36;101083.81;;;7.10;100.00
51452;BME280;37521;52.020;-1.740;2023-04-04T10:06:05;101081.75;;;7.31;100.00
51452;BME280;37521;52.020;-1.740;2023-04-04T10:08:34;101078.22;;;7.32;100.00
51452;BME280;37521;52.020;-1.740;2023-04-04T10:11:05;101079.13;;;7.31;100.00
51452;BME280;37521;52.020;-1.740;2023-04-04T10:13:39;101072.81;;;7.41;98.98
51452;BME280;37521;52.020;-1.740;2023-04-04T10:16:10;101065.56;;;7.55;98.36
51452;BME280;37521;52.020;-1.740;2023-04-04T10:18:38;101063.97;;;7.47;90.70
51452;BME280;37521;52.020;-1.740;2023-04-04T10:21:07;101077.78;;;7.59;99.86
51452;BME280;37521;52.020;-1.740;2023-04-04T10:23:40;101063.88;;;8.01;90.13
51452;BME280;37521;52.020;-1.740;2023-04-04T10:26:11;101062.03;;;8.06;81.44
51452;BME280;37521;52.020;-1.740;2023-04-04T10:28:40;101061.44;;;8.35;83.19
51452;BME280;37521;52.020;-1.740;2023-04-04T10:31:15;101055.88;;;8.52;90.82
51452;BME280;37521;52.020;-1.740;2023-04-04T10:33:51;101069.63;;;8.66;82.58
51452;BME280;37521;52.020;-1.740;2023-04-04T10:36:23;101055.81;;;8.55;80.47
51452;BME280;37521;52.020;-1.740;2023-04-04T10:39:02;101064.09;;;8.35;76.45
51452;BME280;37521;52.020;-1.740;2023-04-04T10:41:34;101057.09;;;8.34;85.49
51452;BME280;37521;52.020;-1.740;2023-04-04T10:44:11;101067.31;;;8.49;90.62
51452;BME280;37521;52.020;-1.740;2023-04-04T10:46:45;101057.22;;;8.71;85.85
51452;BME280;37521;52.020;-1.740;2023-04-04T10:49:14;101056.41;;;8.67;85.28
51452;BME280;37521;52.020;-1.740;2023-04-04T10:51:42;101054.94;;;8.94;91.99
51452;BME280;37521;52.020;-1.740;2023-04-04T10:54:21;101060.22;;;9.32;80.93
51452;BME280;37521;52.020;-1.740;2023-04-04T10:56:51;101046.44;;;9.20;72.05
51452;BME280;37521;52.020;-1.740;2023-04-04T10:59:23;101050.00;;;9.18;65.95
51452;BME280;37521;52.020;-1.740;2023-04-04T11:01:55;101054.72;;;9.41;72.30
51452;BME280;37521;52.020;-1.740;2023-04-04T11:04:31;101045.69;;;9.51;66.73
51452;BME280;37521;52.020;-1.740;2023-04-04T11:07:18;101051.16;;;9.42;72.54
51452;BME280;37521;52.020;-1.740;2023-04-04T11:09:49;101053.06;;;9.37;68.41
51452;BME280;37521;52.020;-1.740;2023-04-04T11:12:27;101055.56;;;9.41;70.28
51452;BME280;37521;52.020;-1.740;2023-04-04T11:15:05;101052.53;;;9.58;65.01
51452;BME280;37521;52.020;-1.740;2023-04-04T11:17:49;101052.06;;;9.76;64.64
51452;BME280;37521;52.020;-1.740;2023-04-04T11:20:19;101051.16;;;9.42;64.94
51452;BME280;37521;52.020;-1.740;2023-04-04T11:22:49;101054.03;;;9.33;69.27
51452;BME280;37521;52.020;-1.740;2023-04-04T11:25:32;101046.69;;;9.45;67.47
51452;BME280;37521;52.020;-1.740;2023-04-04T11:28:08;101042.06;;;9.19;66.35
51452;BME280;37521;52.020;-1.740;2023-04-04T11:30:42;101043.81;;;8.82;66.77
51452;BME280;37521;52.020;-1.740;2023-04-04T11:33:35;101043.66;;;8.88;78.47
51452;BME280;37521;52.020;-1.740;2023-04-04T11:39:31;101040.63;;;9.42;71.52
51452;BME280;37521;52.020;-1.740;2023-04-04T11:42:02;101039.69;;;9.44;68.08
51452;BME280;37521;52.020;-1.740;2023-04-04T11:44:40;101040.41;;;9.51;65.77
51452;BME280;37521;52.020;-1.740;2023-04-04T11:47:10;101022.00;;;9.48;63.63
51452;BME280;37521;52.020;-1.740;2023-04-04T11:49:40;101033.63;;;9.41;68.08
51452;BME280;37521;52.020;-1.740;2023-04-04T11:52:11;101030.31;;;9.33;65.23
51452;BME280;37521;52.020;-1.740;2023-04-04T11:54:41;101022.50;;;9.30;62.91
51452;BME280;37521;52.020;-1.740;2023-04-04T11:57:11;101015.78;;;9.52;64.21
51452;BME280;37521;52.020;-1.740;2023-04-04T11:59:41;101019.28;;;9.85;63.27
51452;BME280;37521;52.020;-1.740;2023-04-04T12:02:11;101010.03;;;9.70;61.00
51452;BME280;37521;52.020;-1.740;2023-04-04T12:04:40;101009.75;;;9.79;63.90
51452;BME280;37521;52.020;-1.740;2023-04-04T12:07:11;100996.25;;;10.23;62.34
51452;BME280;37521;52.020;-1.740;2023-04-04T12:09:41;101002.03;;;10.37;62.66
51452;BME280;37521;52.020;-1.740;2023-04-04T12:12:11;101000.69;;;10.52;60.85
51452;BME280;37521;52.020;-1.740;2023-04-04T12:14:43;101002.03;;;10.65;62.06
51452;BME280;37521;52.020;-1.740;2023-04-04T12:17:11;100988.59;;;10.73;55.54
51452;BME280;37521;52.020;-1.740;2023-04-04T12:19:42;100988.59;;;10.45;56.19
51452;BME280;37521;52.020;-1.740;2023-04-04T12:22:10;100987.28;;;10.28;58.07
51452;BME280;37521;52.020;-1.740;2023-04-04T12:24:38;100985.75;;;10.79;57.20
51452;BME280;37521;52.020;-1.740;2023-04-04T12:27:07;100972.25;;;11.14;53.75
51452;BME280;37521;52.020;-1.740;2023-04-04T12:29:35;100975.22;;;11.05;51.37
51452;BME280;37521;52.020;-1.740;2023-04-04T12:32:05;100973.78;;;11.22;52.86
51452;BME280;37521;52.020;-1.740;2023-04-04T12:34:41;100972.41;;;11.36;50.46
51452;BME280;37521;52.020;-1.740;2023-04-04T12:37:15;100968.25;;;11.54;52.67
51452;BME280;37521;52.020;-1.740;2023-04-04T12:39:46;100963.03;;;11.53;49.82
51452;BME280;37521;52.020;-1.740;2023-04-04T12:42:19;100960.72;;;11.43;51.99
51452;BME280;37521;52.020;-1.740;2023-04-04T12:44:49;100953.97;;;11.60;50.96
51452;BME280;37521;52.020;-1.740;2023-04-04T12:47:19;100954.03;;;11.83;52.27
51452;BME280;37521;52.020;-1.740;2023-04-04T12:49:52;100945.31;;;12.05;50.63
51452;BME280;37521;52.020;-1.740;2023-04-04T12:52:25;100941.53;;;12.10;50.77
51452;BME280;37521;52.020;-1.740;2023-04-04T12:54:57;100934.47;;;11.87;51.26